sensor_id;sensor_type;location;lat;lon;timestamp;P1;durP1;ratioP1;P2;durP2;ratioP2
81960;SDS011;71462;50.650;6.888;2024-01-07T00:00:25;38.63;;;15.55;;
81960;SDS011;71462;50.650;6.888;2024-01-07T00:02:53;47.17;;;16.98;;
81960;SDS011;71462;50.650;6.888;2024-01-07T00:05:22;40.47;;;16.50;;
81960;SDS011;71462;50.650;6.888;2024-01-07T00:07:50;46.13;;;18.70;;
81960;SDS011;71462;50.650;6.888;2024-01-07T00:10:18;70.55;;;20.02;;
81960;SDS011;71462;50.650;6.888;2024-01-07T00:12:45;46.42;;;18.00;;
81960;SDS011;71462;50.650;6.888;2024-01-07T00:15:14;92.63;;;20.98;;
81960;SDS011;71462;50.650;6.888;2024-01-07T00:17:43;58.28;;;18.90;;
81960;SDS011;71462;50.650;6.888;2024-01-07T00:20:11;41.13;;;16.70;;
81960;SDS011;71462;50.650;6.888;2024-01-07T00:22:40;55.58;;;20.42;;
81960;SDS011;71462;50.650;6.888;2024-01-07T00:25:08;52.38;;;19.35;;
81960;SDS011;71462;50.650;6.888;2024-01-07T00:27:35;62.17;;;20.17;;
81960;SDS011;71462;50.650;6.888;2024-01-07T00:30:03;53.17;;;20.10;;
81960;SDS011;71462;50.650;6.888;2024-01-07T00:32:32;47.53;;;18.48;;
81960;SDS011;71462;50.650;6.888;2024-01-07T00:34:59;55.75;;;18.77;;
81960;SDS011;71462;50.650;6.888;2024-01-07T00:37:27;50.53;;;19.52;;
81960;SDS011;71462;50.650;6.888;2024-01-07T00:39:56;45.67;;;18.67;;
81960;SDS011;71462;50.650;6.888;2024-01-07T00:42:24;67.03;;;20.48;;
81960;SDS011;71462;50.650;6.888;2024-01-07T00:44:51;78.55;;;22.08;;
81960;SDS011;71462;50.650;6.888;2024-01-07T00:47:19;75.15;;;21.30;;
81960;SDS011;71462;50.650;6.888;2024-01-07T00:49:47;57.00;;;20.88;;
81960;SDS011;71462;50.650;6.888;2024-01-07T00:52:14;73.20;;;20.02;;
81960;SDS011;71462;50.650;6.888;2024-01-07T00:54:42;117.88;;;22.83;;
81960;SDS011;71462;50.650;6.888;2024-01-07T00:57:11;61.00;;;20.67;;
81960;SDS011;71462;50.650;6.888;2024-01-07T00:59:39;52.13;;;19.95;;
81960;SDS011;71462;50.650;6.888;2024-01-07T01:02:07;60.03;;;20.85;;
81960;SDS011;71462;50.650;6.888;2024-01-07T01:04:37;52.67;;;19.27;;
81960;SDS011;71462;50.650;6.888;2024-01-07T01:07:05;45.40;;;19.20;;
81960;SDS011;71462;50.650;6.888;2024-01-07T01:09:34;58.35;;;20.50;;
81960;SDS011;71462;50.650;6.888;2024-01-07T01:12:02;56.45;;;18.67;;
81960;SDS011;71462;50.650;6.888;2024-01-07T01:14:32;47.42;;;19.95;;
81960;SDS011;71462;50.650;6.888;2024-01-07T01:16:59;47.83;;;19.08;;
81960;SDS011;71462;50.650;6.888;2024-01-07T01:19:27;53.88;;;21.10;;
81960;SDS011;71462;50.650;6.888;2024-01-07T01:21:55;49.65;;;18.80;;
81960;SDS011;71462;50.650;6.888;2024-01-07T01:24:23;47.08;;;18.77;;
81960;SDS011;71462;50.650;6.888;2024-01-07T01:26:51;49.65;;;18.95;;
81960;SDS011;71462;50.650;6.888;2024-01-07T01:29:18;51.85;;;19.30;;
81960;SDS011;71462;50.650;6.888;2024-01-07T01:31:47;46.55;;;18.85;;
81960;SDS011;71462;50.650;6.888;2024-01-07T01:34:15;44.97;;;18.45;;
81960;SDS011;71462;50.650;6.888;2024-01-07T01:36:43;47.45;;;17.70;;
81960;SDS011;71462;50.650;6.888;2024-01-07T01:39:10;44.22;;;19.00;;
81960;SDS011;71462;50.650;6.888;2024-01-07T01:41:38;47.17;;;19.23;;
81960;SDS011;71462;50.650;6.888;2024-01-07T01:44:05;45.33;;;18.65;;
81960;SDS011;71462;50.650;6.888;2024-01-07T01:46:33;47.90;;;21.25;;
81960;SDS011;71462;50.650;6.888;2024-01-07T01:49:02;41.13;;;17.15;;
81960;SDS011;71462;50.650;6.888;2024-01-07T01:51:30;47.15;;;19.27;;
81960;SDS011;71462;50.650;6.888;2024-01-07T01:53:58;42.03;;;16.70;;
81960;SDS011;71462;50.650;6.888;2024-01-07T01:56:27;42.45;;;17.20;;
81960;SDS011;71462;50.650;6.888;2024-01-07T01:58:55;41.35;;;16.65;;
81960;SDS011;71462;50.650;6.888;2024-01-07T02:01:22;39.10;;;16.23;;
81960;SDS011;71462;50.650;6.888;2024-01-07T02:03:50;42.95;;;17.42;;
81960;SDS011;71462;50.650;6.888;2024-01-07T02:06:21;39.83;;;16.73;;
81960;SDS011;71462;50.650;6.888;2024-01-07T02:08:49;42.03;;;18.08;;
81960;SDS011;71462;50.650;6.888;2024-01-07T02:11:17;41.63;;;18.00;;
81960;SDS011;71462;50.650;6.888;2024-01-07T02:13:45;37.78;;;15.98;;
81960;SDS011;71462;50.650;6.888;2024-01-07T02:16:14;39.13;;;17.02;;
81960;SDS011;71462;50.650;6.888;2024-01-07T02:18:42;39.75;;;17.65;;
81960;SDS011;71462;50.650;6.888;2024-01-07T02:21:12;39.17;;;17.40;;
81960;SDS011;71462;50.650;6.888;2024-01-07T02:23:42;40.05;;;16.02;;
81960;SDS011;71462;50.650;6.888;2024-01-07T02:26:11;40.33;;;17.35;;
81960;SDS011;71462;50.650;6.888;2024-01-07T02:28:38;36.60;;;16.30;;
81960;SDS011;71462;50.650;6.888;2024-01-07T02:31:06;43.38;;;17.50;;
81960;SDS011;71462;50.650;6.888;2024-01-07T02:33:34;44.22;;;17.88;;
81960;SDS011;71462;50.650;6.888;2024-01-07T02:36:02;40.45;;;16.15;;
81960;SDS011;71462;50.650;6.888;2024-01-07T02:38:30;41.65;;;17.48;;
81960;SDS011;71462;50.650;6.888;2024-01-07T02:40:57;41.22;;;17.55;;
81960;SDS011;71462;50.650;6.888;2024-01-07T02:43:26;34.28;;;16.08;;
81960;SDS011;71462;50.650;6.888;2024-01-07T02:45:54;36.80;;;15.38;;
81960;SDS011;71462;50.650;6.888;2024-01-07T02:48:21;36.88;;;15.60;;
81960;SDS011;71462;50.650;6.888;2024-01-07T02:50:49;38.15;;;15.05;;
81960;SDS011;71462;50.650;6.888;2024-01-07T02:53:16;36.42;;;14.50;;
81960;SDS011;71462;50.650;6.888;2024-01-07T02:55:44;35.33;;;14.63;;
81960;SDS011;71462;50.650;6.888;2024-01-07T02:58:12;30.65;;;13.60;;
81960;SDS011;71462;50.650;6.888;2024-01-07T03:00:41;33.70;;;15.32;;
81960;SDS011;71462;50.650;6.888;2024-01-07T03:03:08;30.35;;;14.07;;
81960;SDS011;71462;50.650;6.888;2024-01-07T03:05:36;30.13;;;13.48;;
81960;SDS011;71462;50.650;6.888;2024-01-07T03:08:04;29.40;;;13.20;;
81960;SDS011;71462;50.650;6.888;2024-01-07T03:10:32;28.25;;;12.77;;
81960;SDS011;71462;50.650;6.888;2024-01-07T03:12:59;29.73;;;12.88;;
81960;SDS011;71462;50.650;6.888;2024-01-07T03:15:27;26.60;;;12.63;;
81960;SDS011;71462;50.650;6.888;2024-01-07T03:17:56;33.30;;;14.48;;
81960;SDS011;71462;50.650;6.888;2024-01-07T03:20:24;33.15;;;15.57;;
81960;SDS011;71462;50.650;6.888;2024-01-07T03:22:52;34.80;;;15.10;;
81960;SDS011;71462;50.650;6.888;2024-01-07T03:25:21;31.38;;;14.27;;
81960;SDS011;71462;50.650;6.888;2024-01-07T03:27:48;28.73;;;12.55;;
81960;SDS011;71462;50.650;6.888;2024-01-07T03:30:16;33.60;;;14.20;;
81960;SDS011;71462;50.650;6.888;2024-01-07T03:32:44;27.67;;;12.77;;
81960;SDS011;71462;50.650;6.888;2024-01-07T03:35:13;33.10;;;14.50;;
81960;SDS011;71462;50.650;6.888;2024-01-07T03:37:40;31.23;;;14.13;;
81960;SDS011;71462;50.650;6.888;2024-01-07T03:40:09;31.75;;;13.52;;
81960;SDS011;71462;50.650;6.888;2024-01-07T03:42:37;28.48;;;13.02;;
81960;SDS011;71462;50.650;6.888;2024-01-07T03:45:05;27.52;;;12.73;;
81960;SDS011;71462;50.650;6.888;2024-01-07T03:47:33;31.85;;;14.50;;
81960;SDS011;71462;50.650;6.888;2024-01-07T03:50:01;29.45;;;13.80;;
81960;SDS011;71462;50.650;6.888;2024-01-07T03:52:29;27.50;;;12.88;;
81960;SDS011;71462;50.650;6.888;2024-01-07T03:54:57;27.02;;;13.05;;
81960;SDS011;71462;50.650;6.888;2024-01-07T03:57:25;26.13;;;13.70;;
81960;SDS011;71462;50.650;6.888;2024-01-07T03:59:52;28.50;;;12.93;;
81960;SDS011;71462;50.650;6.888;2024-01-07T04:02:20;24.10;;;12.07;;
81960;SDS011;71462;50.650;6.888;2024-01-07T04:04:47;24.63;;;11.68;;
81960;SDS011;71462;50.650;6.888;2024-01-07T04:07:15;23.27;;;11.13;;
81960;SDS011;71462;50.650;6.888;2024-01-07T04:09:44;20.02;;;10.82;;
81960;SDS011;71462;50.650;6.888;2024-01-07T04:12:12;23.33;;;10.93;;
81960;SDS011;71462;50.650;6.888;2024-01-07T04:14:39;22.40;;;11.20;;
81960;SDS011;71462;50.650;6.888;2024-01-07T04:17:07;21.48;;;10.57;;
81960;SDS011;71462;50.650;6.888;2024-01-07T04:19:36;23.77;;;11.80;;
81960;SDS011;71462;50.650;6.888;2024-01-07T04:22:04;18.92;;;10.65;;
81960;SDS011;71462;50.650;6.888;2024-01-07T04:24:31;20.77;;;10.32;;
81960;SDS011;71462;50.650;6.888;2024-01-07T04:27:00;20.13;;;9.90;;
81960;SDS011;71462;50.650;6.888;2024-01-07T04:29:28;21.58;;;10.63;;
81960;SDS011;71462;50.650;6.888;2024-01-07T04:31:55;19.92;;;10.55;;
81960;SDS011;71462;50.650;6.888;2024-01-07T04:34:23;17.45;;;9.25;;
81960;SDS011;71462;50.650;6.888;2024-01-07T04:36:51;21.60;;;10.60;;
81960;SDS011;71462;50.650;6.888;2024-01-07T04:39:19;20.33;;;10.88;;
81960;SDS011;71462;50.650;6.888;2024-01-07T04:41:47;19.20;;;10.27;;
81960;SDS011;71462;50.650;6.888;2024-01-07T04:44:15;20.15;;;11.10;;
81960;SDS011;71462;50.650;6.888;2024-01-07T04:46:43;20.70;;;11.32;;
81960;SDS011;71462;50.650;6.888;2024-01-07T04:49:11;23.33;;;11.50;;
81960;SDS011;71462;50.650;6.888;2024-01-07T04:51:38;23.58;;;11.43;;
81960;SDS011;71462;50.650;6.888;2024-01-07T04:54:06;22.42;;;11.15;;
81960;SDS011;71462;50.650;6.888;2024-01-07T04:56:34;20.50;;;9.82;;
81960;SDS011;71462;50.650;6.888;2024-01-07T04:59:01;18.25;;;9.73;;
81960;SDS011;71462;50.650;6.888;2024-01-07T05:01:31;18.25;;;9.55;;
81960;SDS011;71462;50.650;6.888;2024-01-07T05:03:59;21.17;;;9.85;;
81960;SDS011;71462;50.650;6.888;2024-01-07T05:06:27;16.98;;;8.85;;
81960;SDS011;71462;50.650;6.888;2024-01-07T05:08:55;18.60;;;8.95;;
81960;SDS011;71462;50.650;6.888;2024-01-07T05:11:23;18.08;;;9.90;;
81960;SDS011;71462;50.650;6.888;2024-01-07T05:13:50;18.10;;;9.50;;
81960;SDS011;71462;50.650;6.888;2024-01-07T05:16:20;21.42;;;10.40;;
81960;SDS011;71462;50.650;6.888;2024-01-07T05:18:49;18.77;;;9.65;;
81960;SDS011;71462;50.650;6.888;2024-01-07T05:21:18;20.92;;;9.43;;
81960;SDS011;71462;50.650;6.888;2024-01-07T05:23:45;20.80;;;8.98;;
81960;SDS011;71462;50.650;6.888;2024-01-07T05:26:13;21.40;;;10.10;;
81960;SDS011;71462;50.650;6.888;2024-01-07T05:28:40;20.33;;;10.52;;
81960;SDS011;71462;50.650;6.888;2024-01-07T05:31:13;21.65;;;10.63;;
81960;SDS011;71462;50.650;6.888;2024-01-07T05:33:42;23.95;;;11.30;;
81960;SDS011;71462;50.650;6.888;2024-01-07T05:36:11;24.13;;;11.90;;
81960;SDS011;71462;50.650;6.888;2024-01-07T05:38:39;22.73;;;11.60;;
81960;SDS011;71462;50.650;6.888;2024-01-07T05:41:08;25.48;;;11.77;;
81960;SDS011;71462;50.650;6.888;2024-01-07T05:43:36;21.90;;;11.35;;
81960;SDS011;71462;50.650;6.888;2024-01-07T05:46:04;23.65;;;11.02;;
81960;SDS011;71462;50.650;6.888;2024-01-07T05:48:40;21.63;;;10.80;;
81960;SDS011;71462;50.650;6.888;2024-01-07T05:51:11;18.80;;;10.25;;
81960;SDS011;71462;50.650;6.888;2024-01-07T05:53:39;25.45;;;11.50;;
81960;SDS011;71462;50.650;6.888;2024-01-07T05:56:07;21.90;;;11.65;;
81960;SDS011;71462;50.650;6.888;2024-01-07T05:58:35;22.80;;;10.85;;
81960;SDS011;71462;50.650;6.888;2024-01-07T06:01:03;22.85;;;11.60;;
81960;SDS011;71462;50.650;6.888;2024-01-07T06:03:31;26.30;;;12.35;;
81960;SDS011;71462;50.650;6.888;2024-01-07T06:05:58;21.88;;;11.52;;
81960;SDS011;71462;50.650;6.888;2024-01-07T06:08:27;22.25;;;12.15;;
81960;SDS011;71462;50.650;6.888;2024-01-07T06:10:55;22.02;;;11.55;;
81960;SDS011;71462;50.650;6.888;2024-01-07T06:13:22;22.45;;;11.75;;
81960;SDS011;71462;50.650;6.888;2024-01-07T06:15:51;21.02;;;11.45;;
81960;SDS011;71462;50.650;6.888;2024-01-07T06:18:19;20.50;;;11.02;;
81960;SDS011;71462;50.650;6.888;2024-01-07T06:20:47;19.27;;;9.35;;
81960;SDS011;71462;50.650;6.888;2024-01-07T06:23:14;23.02;;;11.23;;
81960;SDS011;71462;50.650;6.888;2024-01-07T06:25:43;23.23;;;10.68;;
81960;SDS011;71462;50.650;6.888;2024-01-07T06:28:11;19.92;;;10.85;;
81960;SDS011;71462;50.650;6.888;2024-01-07T06:30:39;22.73;;;10.35;;
81960;SDS011;71462;50.650;6.888;2024-01-07T06:33:07;19.70;;;9.77;;
81960;SDS011;71462;50.650;6.888;2024-01-07T06:35:34;22.45;;;10.65;;
81960;SDS011;71462;50.650;6.888;2024-01-07T06:38:02;21.65;;;10.27;;
81960;SDS011;71462;50.650;6.888;2024-01-07T06:40:30;18.92;;;10.02;;
81960;SDS011;71462;50.650;6.888;2024-01-07T06:43:00;18.73;;;10.02;;
81960;SDS011;71462;50.650;6.888;2024-01-07T06:45:27;20.23;;;11.02;;
81960;SDS011;71462;50.650;6.888;2024-01-07T06:47:55;19.73;;;10.40;;
81960;SDS011;71462;50.650;6.888;2024-01-07T06:50:22;32.58;;;11.60;;
81960;SDS011;71462;50.650;6.888;2024-01-07T06:52:50;21.33;;;10.82;;
81960;SDS011;71462;50.650;6.888;2024-01-07T06:55:17;21.55;;;10.55;;
81960;SDS011;71462;50.650;6.888;2024-01-07T06:57:45;21.90;;;11.10;;
81960;SDS011;71462;50.650;6.888;2024-01-07T07:00:15;20.48;;;10.65;;
81960;SDS011;71462;50.650;6.888;2024-01-07T07:02:43;20.65;;;11.65;;
81960;SDS011;71462;50.650;6.888;2024-01-07T07:05:11;22.02;;;11.30;;
81960;SDS011;71462;50.650;6.888;2024-01-07T07:07:39;21.70;;;11.15;;
81960;SDS011;71462;50.650;6.888;2024-01-07T07:10:07;19.73;;;11.40;;
81960;SDS011;71462;50.650;6.888;2024-01-07T07:12:35;22.23;;;11.45;;
81960;SDS011;71462;50.650;6.888;2024-01-07T07:15:02;23.15;;;11.80;;
81960;SDS011;71462;50.650;6.888;2024-01-07T07:17:32;21.08;;;10.85;;
81960;SDS011;71462;50.650;6.888;2024-01-07T07:19:59;24.60;;;12.07;;
81960;SDS011;71462;50.650;6.888;2024-01-07T07:22:27;22.33;;;11.95;;
81960;SDS011;71462;50.650;6.888;2024-01-07T07:24:54;25.83;;;13.65;;
81960;SDS011;71462;50.650;6.888;2024-01-07T07:27:27;27.52;;;13.75;;
81960;SDS011;71462;50.650;6.888;2024-01-07T07:29:55;26.73;;;13.85;;
81960;SDS011;71462;50.650;6.888;2024-01-07T07:32:23;25.98;;;13.07;;
81960;SDS011;71462;50.650;6.888;2024-01-07T07:34:52;25.63;;;13.88;;
81960;SDS011;71462;50.650;6.888;2024-01-07T07:37:20;24.40;;;13.07;;
81960;SDS011;71462;50.650;6.888;2024-01-07T07:39:47;26.27;;;13.60;;
81960;SDS011;71462;50.650;6.888;2024-01-07T07:42:15;25.45;;;13.18;;
81960;SDS011;71462;50.650;6.888;2024-01-07T07:44:43;25.17;;;12.77;;
81960;SDS011;71462;50.650;6.888;2024-01-07T07:47:10;23.55;;;12.40;;
81960;SDS011;71462;50.650;6.888;2024-01-07T07:49:38;26.95;;;14.40;;
81960;SDS011;71462;50.650;6.888;2024-01-07T07:52:08;22.40;;;12.18;;
81960;SDS011;71462;50.650;6.888;2024-01-07T07:54:36;23.25;;;13.15;;
81960;SDS011;71462;50.650;6.888;2024-01-07T07:57:05;22.88;;;12.10;;
81960;SDS011;71462;50.650;6.888;2024-01-07T07:59:32;21.50;;;12.15;;
81960;SDS011;71462;50.650;6.888;2024-01-07T08:02:00;28.83;;;13.65;;
81960;SDS011;71462;50.650;6.888;2024-01-07T08:04:27;26.58;;;13.55;;
81960;SDS011;71462;50.650;6.888;2024-01-07T08:06:55;24.52;;;14.25;;
81960;SDS011;71462;50.650;6.888;2024-01-07T08:09:24;25.67;;;13.38;;
81960;SDS011;71462;50.650;6.888;2024-01-07T08:11:52;25.65;;;12.98;;
81960;SDS011;71462;50.650;6.888;2024-01-07T08:14:19;21.20;;;12.10;;
81960;SDS011;71462;50.650;6.888;2024-01-07T08:16:47;25.25;;;12.73;;
81960;SDS011;71462;50.650;6.888;2024-01-07T08:19:15;22.63;;;12.35;;
81960;SDS011;71462;50.650;6.888;2024-01-07T08:21:42;23.10;;;12.05;;
81960;SDS011;71462;50.650;6.888;2024-01-07T08:24:11;24.00;;;13.18;;
81960;SDS011;71462;50.650;6.888;2024-01-07T08:26:40;23.05;;;12.25;;
81960;SDS011;71462;50.650;6.888;2024-01-07T08:29:07;26.15;;;13.35;;
81960;SDS011;71462;50.650;6.888;2024-01-07T08:31:35;21.20;;;11.80;;
81960;SDS011;71462;50.650;6.888;2024-01-07T08:34:03;22.38;;;12.73;;
81960;SDS011;71462;50.650;6.888;2024-01-07T08:36:30;22.98;;;12.40;;
81960;SDS011;71462;50.650;6.888;2024-01-07T08:38:58;23.52;;;11.98;;
81960;SDS011;71462;50.650;6.888;2024-01-07T08:41:26;22.33;;;11.80;;
81960;SDS011;71462;50.650;6.888;2024-01-07T08:43:55;23.95;;;12.10;;
81960;SDS011;71462;50.650;6.888;2024-01-07T08:46:22;24.08;;;12.23;;
81960;SDS011;71462;50.650;6.888;2024-01-07T08:48:50;23.85;;;13.32;;
81960;SDS011;71462;50.650;6.888;2024-01-07T08:51:18;23.60;;;12.02;;
81960;SDS011;71462;50.650;6.888;2024-01-07T08:53:45;23.90;;;12.40;;
81960;SDS011;71462;50.650;6.888;2024-01-07T08:56:13;22.90;;;11.18;;
81960;SDS011;71462;50.650;6.888;2024-01-07T08:58:41;21.80;;;11.80;;
81960;SDS011;71462;50.650;6.888;2024-01-07T09:01:10;20.17;;;10.82;;
81960;SDS011;71462;50.650;6.888;2024-01-07T09:03:37;22.83;;;10.98;;
81960;SDS011;71462;50.650;6.888;2024-01-07T09:06:05;20.58;;;11.55;;
81960;SDS011;71462;50.650;6.888;2024-01-07T09:08:34;20.40;;;11.38;;
81960;SDS011;71462;50.650;6.888;2024-01-07T09:11:03;22.27;;;11.82;;
81960;SDS011;71462;50.650;6.888;2024-01-07T09:13:32;18.17;;;10.27;;
81960;SDS011;71462;50.650;6.888;2024-01-07T09:16:00;20.30;;;10.80;;
81960;SDS011;71462;50.650;6.888;2024-01-07T09:18:29;23.85;;;11.70;;
81960;SDS011;71462;50.650;6.888;2024-01-07T09:20:57;22.38;;;12.02;;
81960;SDS011;71462;50.650;6.888;2024-01-07T09:23:24;19.98;;;11.30;;
81960;SDS011;71462;50.650;6.888;2024-01-07T09:25:52;21.15;;;11.45;;
81960;SDS011;71462;50.650;6.888;2024-01-07T09:28:19;23.63;;;11.57;;
81960;SDS011;71462;50.650;6.888;2024-01-07T09:30:47;21.80;;;12.07;;
81960;SDS011;71462;50.650;6.888;2024-01-07T09:33:15;23.40;;;12.07;;
81960;SDS011;71462;50.650;6.888;2024-01-07T09:35:44;23.33;;;11.80;;
81960;SDS011;71462;50.650;6.888;2024-01-07T09:38:12;20.30;;;11.45;;
81960;SDS011;71462;50.650;6.888;2024-01-07T09:40:41;20.38;;;11.75;;
81960;SDS011;71462;50.650;6.888;2024-01-07T09:43:09;22.23;;;11.77;;
81960;SDS011;71462;50.650;6.888;2024-01-07T09:45:38;20.33;;;11.82;;
81960;SDS011;71462;50.650;6.888;2024-01-07T09:48:08;21.48;;;11.40;;
81960;SDS011;71462;50.650;6.888;2024-01-07T09:50:36;21.67;;;11.40;;
81960;SDS011;71462;50.650;6.888;2024-01-07T09:53:05;20.58;;;11.93;;
81960;SDS011;71462;50.650;6.888;2024-01-07T09:55:39;20.90;;;11.00;;
81960;SDS011;71462;50.650;6.888;2024-01-07T09:58:14;20.70;;;10.65;;
81960;SDS011;71462;50.650;6.888;2024-01-07T10:00:42;22.25;;;11.32;;
81960;SDS011;71462;50.650;6.888;2024-01-07T10:03:10;18.95;;;10.00;;
81960;SDS011;71462;50.650;6.888;2024-01-07T10:05:38;21.95;;;10.38;;
81960;SDS011;71462;50.650;6.888;2024-01-07T10:08:07;18.15;;;9.90;;
81960;SDS011;71462;50.650;6.888;2024-01-07T10:10:35;18.58;;;9.90;;
81960;SDS011;71462;50.650;6.888;2024-01-07T10:13:03;20.15;;;10.10;;
81960;SDS011;71462;50.650;6.888;2024-01-07T10:15:31;17.23;;;10.02;;
81960;SDS011;71462;50.650;6.888;2024-01-07T10:18:02;16.70;;;9.88;;
81960;SDS011;71462;50.650;6.888;2024-01-07T10:20:31;22.35;;;10.73;;
81960;SDS011;71462;50.650;6.888;2024-01-07T10:23:01;19.17;;;9.35;;
81960;SDS011;71462;50.650;6.888;2024-01-07T10:25:31;17.60;;;10.10;;
81960;SDS011;71462;50.650;6.888;2024-01-07T10:27:59;17.67;;;9.20;;
81960;SDS011;71462;50.650;6.888;2024-01-07T10:30:27;19.83;;;10.45;;
81960;SDS011;71462;50.650;6.888;2024-01-07T10:32:55;19.58;;;9.95;;
81960;SDS011;71462;50.650;6.888;2024-01-07T10:35:27;17.00;;;9.63;;
81960;SDS011;71462;50.650;6.888;2024-01-07T10:37:56;19.00;;;10.02;;
81960;SDS011;71462;50.650;6.888;2024-01-07T10:40:24;17.70;;;10.07;;
81960;SDS011;71462;50.650;6.888;2024-01-07T10:42:55;19.38;;;9.93;;
81960;SDS011;71462;50.650;6.888;2024-01-07T10:45:23;19.73;;;9.60;;
81960;SDS011;71462;50.650;6.888;2024-01-07T10:47:54;21.73;;;10.13;;
81960;SDS011;71462;50.650;6.888;2024-01-07T10:50:22;20.15;;;10.52;;
81960;SDS011;71462;50.650;6.888;2024-01-07T10:52:50;21.10;;;10.30;;
81960;SDS011;71462;50.650;6.888;2024-01-07T10:55:21;22.00;;;10.60;;
81960;SDS011;71462;50.650;6.888;2024-01-07T10:57:53;18.25;;;9.88;;
81960;SDS011;71462;50.650;6.888;2024-01-07T11:00:23;21.98;;;10.55;;
81960;SDS011;71462;50.650;6.888;2024-01-07T11:02:53;20.45;;;10.10;;
81960;SDS011;71462;50.650;6.888;2024-01-07T11:05:30;19.13;;;9.70;;
81960;SDS011;71462;50.650;6.888;2024-01-07T11:08:03;23.25;;;11.35;;
81960;SDS011;71462;50.650;6.888;2024-01-07T11:10:35;19.58;;;10.55;;
81960;SDS011;71462;50.650;6.888;2024-01-07T11:13:33;18.92;;;10.57;;
81960;SDS011;71462;50.650;6.888;2024-01-07T11:16:03;19.48;;;10.18;;
81960;SDS011;71462;50.650;6.888;2024-01-07T11:18:32;22.70;;;10.77;;
81960;SDS011;71462;50.650;6.888;2024-01-07T11:21:01;17.83;;;10.35;;
81960;SDS011;71462;50.650;6.888;2024-01-07T11:23:30;18.58;;;10.02;;
81960;SDS011;71462;50.650;6.888;2024-01-07T11:25:59;18.95;;;9.90;;
81960;SDS011;71462;50.650;6.888;2024-01-07T11:28:43;17.85;;;9.73;;
81960;SDS011;71462;50.650;6.888;2024-01-07T11:31:16;12.07;;;7.75;;
81960;SDS011;71462;50.650;6.888;2024-01-07T11:33:45;17.88;;;9.15;;
81960;SDS011;71462;50.650;6.888;2024-01-07T11:36:14;11.77;;;6.93;;
81960;SDS011;71462;50.650;6.888;2024-01-07T11:38:42;12.52;;;7.60;;
81960;SDS011;71462;50.650;6.888;2024-01-07T11:41:11;11.30;;;6.45;;
81960;SDS011;71462;50.650;6.888;2024-01-07T11:43:53;12.60;;;7.80;;
81960;SDS011;71462;50.650;6.888;2024-01-07T11:46:23;13.55;;;6.68;;
81960;SDS011;71462;50.650;6.888;2024-01-07T11:48:52;12.15;;;6.70;;
81960;SDS011;71462;50.650;6.888;2024-01-07T11:51:25;15.25;;;7.40;;
81960;SDS011;71462;50.650;6.888;2024-01-07T11:53:53;61.15;;;23.08;;
81960;SDS011;71462;50.650;6.888;2024-01-07T11:56:21;35.08;;;11.43;;
81960;SDS011;71462;50.650;6.888;2024-01-07T11:58:49;108.65;;;29.17;;
81960;SDS011;71462;50.650;6.888;2024-01-07T12:01:17;72.07;;;26.80;;
81960;SDS011;71462;50.650;6.888;2024-01-07T12:03:47;30.00;;;14.43;;
81960;SDS011;71462;50.650;6.888;2024-01-07T12:06:16;13.55;;;8.75;;
81960;SDS011;71462;50.650;6.888;2024-01-07T12:08:43;12.82;;;8.10;;
81960;SDS011;71462;50.650;6.888;2024-01-07T12:11:11;14.65;;;8.38;;
81960;SDS011;71462;50.650;6.888;2024-01-07T12:13:41;17.83;;;10.10;;
81960;SDS011;71462;50.650;6.888;2024-01-07T12:16:09;17.65;;;9.68;;
81960;SDS011;71462;50.650;6.888;2024-01-07T12:18:38;17.55;;;8.95;;
81960;SDS011;71462;50.650;6.888;2024-01-07T12:21:08;19.70;;;11.15;;
81960;SDS011;71462;50.650;6.888;2024-01-07T12:23:36;15.20;;;9.82;;
81960;SDS011;71462;50.650;6.888;2024-01-07T12:26:08;18.02;;;10.05;;
81960;SDS011;71462;50.650;6.888;2024-01-07T12:28:37;20.70;;;10.75;;
81960;SDS011;71462;50.650;6.888;2024-01-07T12:31:05;21.95;;;11.32;;
81960;SDS011;71462;50.650;6.888;2024-01-07T12:33:36;19.33;;;10.40;;
81960;SDS011;71462;50.650;6.888;2024-01-07T12:36:07;18.77;;;11.60;;
81960;SDS011;71462;50.650;6.888;2024-01-07T12:38:36;19.83;;;11.93;;
81960;SDS011;71462;50.650;6.888;2024-01-07T12:41:04;17.40;;;10.13;;
81960;SDS011;71462;50.650;6.888;2024-01-07T12:43:32;16.38;;;9.25;;
81960;SDS011;71462;50.650;6.888;2024-01-07T12:46:00;19.33;;;10.98;;
81960;SDS011;71462;50.650;6.888;2024-01-07T12:48:32;23.38;;;10.35;;
81960;SDS011;71462;50.650;6.888;2024-01-07T12:51:00;16.15;;;9.38;;
81960;SDS011;71462;50.650;6.888;2024-01-07T12:53:30;21.42;;;10.07;;
81960;SDS011;71462;50.650;6.888;2024-01-07T12:55:57;19.48;;;10.20;;
81960;SDS011;71462;50.650;6.888;2024-01-07T12:58:25;17.33;;;9.95;;
81960;SDS011;71462;50.650;6.888;2024-01-07T13:00:52;18.30;;;10.10;;
81960;SDS011;71462;50.650;6.888;2024-01-07T13:03:20;19.77;;;11.10;;
81960;SDS011;71462;50.650;6.888;2024-01-07T13:05:48;18.58;;;10.07;;
81960;SDS011;71462;50.650;6.888;2024-01-07T13:08:17;19.00;;;9.70;;
81960;SDS011;71462;50.650;6.888;2024-01-07T13:10:49;19.85;;;9.90;;
81960;SDS011;71462;50.650;6.888;2024-01-07T13:13:17;17.15;;;9.80;;
81960;SDS011;71462;50.650;6.888;2024-01-07T13:15:48;18.15;;;10.40;;
81960;SDS011;71462;50.650;6.888;2024-01-07T13:18:17;17.45;;;10.88;;
81960;SDS011;71462;50.650;6.888;2024-01-07T13:20:45;17.50;;;9.82;;
81960;SDS011;71462;50.650;6.888;2024-01-07T13:23:13;16.70;;;9.93;;
81960;SDS011;71462;50.650;6.888;2024-01-07T13:25:41;18.63;;;10.48;;
81960;SDS011;71462;50.650;6.888;2024-01-07T13:28:10;17.63;;;9.95;;
81960;SDS011;71462;50.650;6.888;2024-01-07T13:30:37;18.15;;;10.30;;
81960;SDS011;71462;50.650;6.888;2024-01-07T13:33:06;17.83;;;9.57;;
81960;SDS011;71462;50.650;6.888;2024-01-07T13:35:35;18.83;;;10.15;;
81960;SDS011;71462;50.650;6.888;2024-01-07T13:38:03;23.25;;;12.95;;
81960;SDS011;71462;50.650;6.888;2024-01-07T13:40:31;20.55;;;9.60;;
81960;SDS011;71462;50.650;6.888;2024-01-07T13:42:59;16.50;;;9.50;;
81960;SDS011;71462;50.650;6.888;2024-01-07T13:45:28;32.63;;;19.35;;
81960;SDS011;71462;50.650;6.888;2024-01-07T13:47:56;18.90;;;11.02;;
81960;SDS011;71462;50.650;6.888;2024-01-07T13:50:23;16.55;;;10.13;;
81960;SDS011;71462;50.650;6.888;2024-01-07T13:52:51;18.30;;;10.63;;
81960;SDS011;71462;50.650;6.888;2024-01-07T13:55:19;18.10;;;10.77;;
81960;SDS011;71462;50.650;6.888;2024-01-07T13:57:47;19.48;;;10.85;;
81960;SDS011;71462;50.650;6.888;2024-01-07T14:00:15;18.52;;;10.43;;
81960;SDS011;71462;50.650;6.888;2024-01-07T14:02:46;16.55;;;9.43;;
81960;SDS011;71462;50.650;6.888;2024-01-07T14:05:16;18.88;;;9.25;;
81960;SDS011;71462;50.650;6.888;2024-01-07T14:07:46;15.35;;;9.25;;
81960;SDS011;71462;50.650;6.888;2024-01-07T14:10:14;15.23;;;8.38;;
81960;SDS011;71462;50.650;6.888;2024-01-07T14:12:45;18.13;;;9.63;;
81960;SDS011;71462;50.650;6.888;2024-01-07T14:15:13;16.67;;;9.35;;
81960;SDS011;71462;50.650;6.888;2024-01-07T14:17:41;16.80;;;9.38;;
81960;SDS011;71462;50.650;6.888;2024-01-07T14:20:10;21.52;;;10.85;;
81960;SDS011;71462;50.650;6.888;2024-01-07T14:22:38;56.03;;;26.65;;
81960;SDS011;71462;50.650;6.888;2024-01-07T14:25:06;42.17;;;20.20;;
81960;SDS011;71462;50.650;6.888;2024-01-07T14:27:34;26.33;;;12.07;;
81960;SDS011;71462;50.650;6.888;2024-01-07T14:30:02;61.22;;;32.28;;